This is the latest recevied weather packets stored in our database for station/object eb1ayw-13. If no packets are shown the sender has not sent any weather packets the latest 10 day(s).
| Time | Temp. | Humidity | Pressure | Rain* | Wind** | Luminosity | Snow |
|---|---|---|---|---|---|---|---|
| 1777564856 | 52.78° C | 11% | 1003.4 hPa | - | - | - | - |
| 1777564256 | 48.89° C | 12% | 1004.3 hPa | - | - | - | - |
| 1777563656 | 50.56° C | 11% | 1003.9 hPa | - | - | - | - |
| 1777563056 | 50° C | 11% | 1003.9 hPa | - | - | - | - |
| 1777562456 | 48.33° C | 13% | 1004.5 hPa | - | - | - | - |
| 1777561857 | 50° C | 12% | 1004.1 hPa | - | - | - | - |
| 1777561256 | 48.33° C | 13% | 1004.5 hPa | - | - | - | - |
| 1777560656 | 51.11° C | 11% | 1003.9 hPa | - | - | - | - |
| 1777560056 | 49.44° C | 12% | 1004.3 hPa | - | - | - | - |
| 1777559456 | 46.11° C | 14% | 1005.1 hPa | - | - | - | - |
| 1777558856 | 48.89° C | 12% | 1004.5 hPa | - | - | - | - |
| 1777558256 | 53.33° C | 11% | 1003.5 hPa | - | - | - | - |
| 1777557656 | 49.44° C | 13% | 1004.5 hPa | - | - | - | - |
| 1777557057 | 48.33° C | 13% | 1004.5 hPa | - | - | - | - |
| 1777556457 | 45° C | 15% | 1005.4 hPa | - | - | - | - |
| 1777555856 | 45° C | 15% | 1005.5 hPa | - | - | - | - |
| 1777555256 | 48.33° C | 13% | 1004.5 hPa | - | - | - | - |
| 1777554656 | 47.22° C | 14% | 1004.7 hPa | - | - | - | - |
| 1777554056 | 48.89° C | 14% | 1004.5 hPa | - | - | - | - |
| 1777553456 | 46.11° C | 15% | 1005.3 hPa | - | - | - | - |
| 1777552856 | 45.56° C | 15% | 1005.2 hPa | - | - | - | - |
| 1777552256 | 46.11° C | 15% | 1005.1 hPa | - | - | - | - |
| 1777551656 | 47.22° C | 15% | 1004.9 hPa | - | - | - | - |
| 1777551056 | 49.44° C | 13% | 1004.3 hPa | - | - | - | - |
| 1777550456 | 48.33° C | 14% | 1004.6 hPa | - | - | - | - |
* Rain since midnight (hover to see other rain measurements)
** Current wind speed in m/s (hover to see current wind gust speed)